Solicitamos su permiso para obtener datos estadísticos de su navegación en esta web, en cumplimiento del Real Decreto-ley 13/2012. Si continúa navegando consideramos que acepta el uso de cookies. OK | Más información

MAPA DE AEROPUERTO

INFORMACIÓN METAR y TAF

METAR FOR LEAS
ADDS - METARS form results

(2125 UTC 24 February 2018)
Data provider http://aviationweather.gov/adds/metars/
 
METAR text: LEAS 242100Z VRB01KT 7000 FEW022 04/02 Q1010 NOSIG
Conditions at: LEAS (ASTURIAS/AVILES , ES) observed 2100 UTC 24 February 2018
Temperature: 4.0°C (39°F)
Dewpoint: 2.0°C (36°F) [RH = 87%]
Pressure (altimeter): 29.82 inches Hg (1010.0 mb)
Winds: variable direction winds at 1 MPH (1 knots; 0.5 m/s)
Visibility: 4 miles (7 km)
Ceiling: at least 12,000 feet AGL
Clouds: few clouds at 2200 feet AGL
Weather: no significant weather observed at this time

METAR text: LEAS 242030Z 10004KT 070V150 8000 FEW026 04/02 Q1010 NOSIG
Conditions at: LEAS (ASTURIAS/AVILES , ES) observed 2030 UTC 24 February 2018
Temperature: 4.0°C (39°F)
Dewpoint: 2.0°C (36°F) [RH = 87%]
Pressure (altimeter): 29.82 inches Hg (1010.0 mb)
Winds: from the E (100 degrees) at 5 MPH (4 knots; 2.1 m/s)
Visibility: 5 miles (8 km)
Ceiling: at least 12,000 feet AGL
Clouds: few clouds at 2600 feet AGL
Weather: no significant weather observed at this time

Forecast for: LEAS (ASTURIAS/AVILES , ES)
Text: TAF LEAS 242000Z 2421/2521 15007KT 9999 SCT030 TX12/2515Z TNM00/2506Z
Forecast period: 2100 UTC 24 February 2018 to 1000 UTC 25 February 2018
Forecast type: FROM: standard forecast or significant change
Winds: from the SSE (150 degrees) at 8 MPH (7 knots; 3.6 m/s)
Visibility: 6 or more miles (10+ km)
Clouds: scattered clouds at 3000 feet AGL
Weather: no significant weather forecast for this period
Text: PROB30
Forecast period: 0300 to 0700 UTC 25 February 2018
Forecast type: TEMPORARY: The following changes expected for less than half the time period
Visibility: 2.49 miles (4.01 km)
Weather: BR  (mist)
Text: TEMPO 2503/2507 4000 BR
Forecast period: 1000 to 2100 UTC 25 February 2018
Forecast type: BECOMING: Conditions expected to become as follows by 1300 UTC 25 February 2018
Winds: from the E (80 degrees) at 12 MPH (10 knots; 5.2 m/s)
Visibility: 6 or more miles (10+ km)
Clouds: scattered clouds at 3000 feet AGL
Weather: no significant weather forecast for this period